createdAt,value
2018-09-22T00:00:21.000Z,41.10
2018-09-22T00:02:23.896Z,40.40
2018-09-22T00:04:26.788Z,40.50
2018-09-22T00:06:29.658Z,40.60
2018-09-22T00:08:32.556Z,40.60
2018-09-22T00:10:36.220Z,40.20
2018-09-22T00:12:39.095Z,40.70
2018-09-22T00:14:42.104Z,40.80
2018-09-22T00:16:44.981Z,40.90
2018-09-22T00:18:47.853Z,40.90
2018-09-22T00:20:50.820Z,40.90
2018-09-22T00:22:54.529Z,41.20
2018-09-22T00:24:57.401Z,41.10
2018-09-22T00:27:00.339Z,41.20
2018-09-22T00:29:03.168Z,41.20
2018-09-22T00:31:06.076Z,41.40
2018-09-22T00:33:08.975Z,41.50
2018-09-22T00:35:13.340Z,41.60
2018-09-22T00:37:16.220Z,41.50
2018-09-22T00:39:19.140Z,41.70
2018-09-22T00:41:22.021Z,41.70
2018-09-22T00:43:24.890Z,41.70
2018-09-22T00:45:27.784Z,41.70
2018-09-22T00:49:34.831Z,41.60
2018-09-22T00:51:37.730Z,41.60
2018-09-22T00:53:40.616Z,41.60
2018-09-22T00:55:43.518Z,41.60
2018-09-22T00:57:46.521Z,41.50
2018-09-22T00:59:49.373Z,41.50
2018-09-22T01:01:52.254Z,41.40
2018-09-22T01:03:55.369Z,41.40
2018-09-22T01:05:59.028Z,41.40
2018-09-22T01:08:01.907Z,41.30
2018-09-22T01:10:04.813Z,41.30
2018-09-22T01:12:07.686Z,41.30
2018-09-22T01:14:10.610Z,41.10
2018-09-22T01:16:13.668Z,41.10
2018-09-22T01:18:16.521Z,41.10
2018-09-22T01:20:19.415Z,41.10
2018-09-22T01:22:22.321Z,41.20
2018-09-22T01:24:25.964Z,41.30
2018-09-22T01:26:28.837Z,41.10
2018-09-22T01:28:32.095Z,41.30
2018-09-22T01:30:36.454Z,41.30
2018-09-22T01:32:39.330Z,41.20
2018-09-22T01:34:42.229Z,41.30
2018-09-22T01:36:45.104Z,41.40
2018-09-22T01:38:48.040Z,41.40
2018-09-22T01:40:51.731Z,41.50
2018-09-22T01:42:55.365Z,41.50
2018-09-22T01:44:58.253Z,41.40
2018-09-22T01:47:01.143Z,41.40
2018-09-22T01:49:04.021Z,41.50
2018-09-22T01:51:06.902Z,41.50
2018-09-22T01:53:09.912Z,41.50
2018-09-22T01:55:12.811Z,41.60
2018-09-22T01:57:16.609Z,41.70
2018-09-22T01:59:19.497Z,41.70
2018-09-22T02:01:23.265Z,41.90
2018-09-22T02:03:26.136Z,41.80
2018-09-22T02:05:29.144Z,41.90
2018-09-22T02:07:32.045Z,41.90
2018-09-22T02:09:35.726Z,42.10
2018-09-22T02:11:38.729Z,42.10
2018-09-22T02:13:41.638Z,42.20
2018-09-22T02:15:44.525Z,42.20
2018-09-22T02:17:47.544Z,42.20
2018-09-22T02:19:50.420Z,42.20
2018-09-22T02:21:53.293Z,42.30
2018-09-22T02:23:56.248Z,42.30
2018-09-22T02:25:59.115Z,42.30
2018-09-22T02:28:01.993Z,42.20
2018-09-22T02:30:05.031Z,42.30
2018-09-22T02:32:09.462Z,42.30
2018-09-22T02:34:13.116Z,42.40
2018-09-22T02:36:16.152Z,42.30
2018-09-22T02:38:19.827Z,42.40
2018-09-22T02:40:22.713Z,42.40
2018-09-22T02:42:25.611Z,42.40
2018-09-22T02:44:29.263Z,42.50
2018-09-22T02:46:32.193Z,42.40
2018-09-22T02:48:35.860Z,42.50
2018-09-22T02:50:38.741Z,42.40
2018-09-22T02:52:41.612Z,42.50
2018-09-22T02:54:44.600Z,42.50
2018-09-22T02:56:47.509Z,42.60
2018-09-22T02:58:50.481Z,42.60
2018-09-22T03:00:55.105Z,42.70
2018-09-22T03:02:57.989Z,42.70
2018-09-22T03:05:00.864Z,42.70
2018-09-22T03:07:05.388Z,42.80
2018-09-22T03:09:09.096Z,42.40
2018-09-22T03:11:11.985Z,43.30
2018-09-22T03:13:15.673Z,42.80
2018-09-22T03:15:19.375Z,43.60
2018-09-22T03:17:22.212Z,42.90
2018-09-22T03:19:25.241Z,42.90
2018-09-22T03:21:28.885Z,43.40
2018-09-22T03:23:31.812Z,43.00
2018-09-22T03:25:34.806Z,43.00
2018-09-22T03:27:37.718Z,43.10
2018-09-22T03:29:40.648Z,43.10
2018-09-22T03:31:43.749Z,43.10
2018-09-22T03:33:47.393Z,42.80
2018-09-22T03:35:50.281Z,43.20
2018-09-22T03:37:53.180Z,43.20
2018-09-22T03:39:56.101Z,43.30
2018-09-22T03:41:59.759Z,43.40
2018-09-22T03:44:03.592Z,43.40
2018-09-22T03:46:07.266Z,43.20
2018-09-22T03:48:10.141Z,43.40
2018-09-22T03:50:13.054Z,43.30
2018-09-22T03:52:16.696Z,43.50
2018-09-22T03:54:19.593Z,43.40
2018-09-22T03:56:22.550Z,43.40
2018-09-22T03:58:26.311Z,43.50
2018-09-22T04:00:29.178Z,43.50
2018-09-22T04:02:32.262Z,43.50
2018-09-22T04:04:35.133Z,43.50
2018-09-22T04:06:38.023Z,43.60
2018-09-22T04:08:41.135Z,44.20
2018-09-22T04:10:44.146Z,43.60
2018-09-22T04:12:47.804Z,43.80
2018-09-22T04:14:50.827Z,43.70
2018-09-22T04:16:54.449Z,43.80
2018-09-22T04:18:57.374Z,43.70
2018-09-22T04:21:00.352Z,43.70
2018-09-22T04:23:03.341Z,43.80
2018-09-22T04:25:06.325Z,43.80
2018-09-22T04:27:09.237Z,43.90
2018-09-22T04:29:12.180Z,44.00
2018-09-22T04:31:15.064Z,44.10
2018-09-22T04:33:18.000Z,44.20
2018-09-22T04:35:20.965Z,44.30
2018-09-22T04:37:24.648Z,44.40
2018-09-22T04:39:28.316Z,44.60
2018-09-22T04:41:31.194Z,44.50
2018-09-22T04:43:34.061Z,44.60
2018-09-22T04:45:37.055Z,44.70
2018-09-22T04:47:39.922Z,44.90
2018-09-22T04:49:42.825Z,44.90
2018-09-22T04:51:45.854Z,45.00
2018-09-22T04:53:49.487Z,45.40
2018-09-22T04:55:52.434Z,45.40
2018-09-22T04:57:56.196Z,45.60
2018-09-22T04:59:59.078Z,45.60
2018-09-22T05:02:01.953Z,45.70
2018-09-22T05:04:04.981Z,45.80
2018-09-22T05:06:08.616Z,46.10
2018-09-22T05:08:11.490Z,46.00
2018-09-22T05:10:14.380Z,46.10
2018-09-22T05:12:17.261Z,46.30
2018-09-22T05:14:20.306Z,46.40
2018-09-22T05:16:24.068Z,46.60
2018-09-22T05:18:26.945Z,46.60
2018-09-22T05:20:29.833Z,46.60
2018-09-22T05:22:32.912Z,47.30
2018-09-22T05:24:35.916Z,46.80
2018-09-22T05:26:39.596Z,47.00
2018-09-22T05:28:42.581Z,46.80
2018-09-22T05:30:45.469Z,46.80
2018-09-22T05:32:48.340Z,46.90
2018-09-22T05:34:51.330Z,47.00
2018-09-22T05:36:54.206Z,47.00
2018-09-22T05:38:57.292Z,47.10
2018-09-22T05:41:01.811Z,47.30
2018-09-22T05:43:06.233Z,47.10
2018-09-22T05:45:09.129Z,47.10
2018-09-22T05:47:12.910Z,47.30
2018-09-22T05:49:15.889Z,47.20
2018-09-22T05:51:18.870Z,47.20
2018-09-22T05:53:21.868Z,47.30
2018-09-22T05:55:24.842Z,47.30
2018-09-22T05:57:27.703Z,47.40
2018-09-22T05:59:30.647Z,47.40
2018-09-22T06:01:33.527Z,47.50
2018-09-22T06:03:37.242Z,47.60
2018-09-22T06:05:40.101Z,47.50
2018-09-22T06:07:43.765Z,47.60
2018-09-22T06:09:46.653Z,47.60
2018-09-22T06:11:50.488Z,48.30
2018-09-22T06:13:54.149Z,47.60
2018-09-22T06:15:57.036Z,47.50
2018-09-22T06:18:00.052Z,47.60
2018-09-22T06:20:03.711Z,47.60
2018-09-22T06:22:06.624Z,47.60
2018-09-22T06:24:09.596Z,47.60
2018-09-22T06:26:13.296Z,47.60
2018-09-22T06:28:17.059Z,47.60
2018-09-22T06:30:19.964Z,47.50
2018-09-22T06:32:22.834Z,47.50
2018-09-22T06:34:25.774Z,47.60
2018-09-22T06:38:32.988Z,47.60
2018-09-22T06:40:36.003Z,47.50
2018-09-22T06:42:38.887Z,47.50
2018-09-22T06:44:42.356Z,47.50
2018-09-22T06:46:45.357Z,47.50
2018-09-22T06:48:48.233Z,48.10
2018-09-22T06:50:51.152Z,47.50
2018-09-22T06:52:54.113Z,47.60
2018-09-22T06:54:57.032Z,47.60
2018-09-22T06:57:00.675Z,48.20
2018-09-22T06:59:03.708Z,47.70
2018-09-22T07:01:07.384Z,48.80
2018-09-22T07:03:10.253Z,48.70
2018-09-22T07:05:13.132Z,49.10
2018-09-22T07:07:16.001Z,49.10
2018-09-22T07:09:18.937Z,48.70
2018-09-22T07:11:21.827Z,48.30
2018-09-22T07:13:24.695Z,48.10
2018-09-22T07:15:27.614Z,48.00
2018-09-22T07:17:30.512Z,47.80
2018-09-22T07:19:34.958Z,47.70
2018-09-22T07:21:37.801Z,47.60
2018-09-22T07:23:40.681Z,47.50
2018-09-22T07:25:43.649Z,47.50
2018-09-22T07:27:46.573Z,47.40
2018-09-22T07:29:49.485Z,47.30
2018-09-22T07:31:52.385Z,47.30
2018-09-22T07:33:55.422Z,47.40
2018-09-22T07:35:59.081Z,47.40
2018-09-22T07:38:02.005Z,47.40
2018-09-22T07:40:06.408Z,47.40
2018-09-22T07:42:09.361Z,47.30
2018-09-22T07:44:12.251Z,47.30
2018-09-22T07:46:15.165Z,47.30
2018-09-22T07:48:18.824Z,47.40
2018-09-22T07:50:21.709Z,47.40
2018-09-22T07:52:24.595Z,47.30
2018-09-22T07:54:27.491Z,47.30
2018-09-22T07:56:30.366Z,47.30
2018-09-22T07:58:33.276Z,47.40
2018-09-22T08:00:36.965Z,47.90
2018-09-22T08:02:41.457Z,47.30
2018-09-22T08:04:44.354Z,47.30
2018-09-22T08:06:47.293Z,47.20
2018-09-22T08:08:50.220Z,47.20
2018-09-22T08:10:53.300Z,47.10
2018-09-22T08:12:56.178Z,47.20
2018-09-22T08:14:59.075Z,47.20
2018-09-22T08:17:02.079Z,47.20
2018-09-22T08:19:05.709Z,47.30
2018-09-22T08:21:08.726Z,47.30
2018-09-22T08:23:13.243Z,47.30
2018-09-22T08:25:16.196Z,47.30
2018-09-22T08:27:19.817Z,47.40
2018-09-22T08:29:22.712Z,47.40
2018-09-22T08:31:25.626Z,47.40
2018-09-22T08:33:29.241Z,47.60
2018-09-22T08:35:32.148Z,47.20
2018-09-22T08:37:35.046Z,47.10
2018-09-22T08:39:37.920Z,47.10
2018-09-22T08:41:40.831Z,47.10
2018-09-22T08:43:44.546Z,47.70
2018-09-22T08:45:47.388Z,47.00
2018-09-22T08:47:50.575Z,47.00
2018-09-22T08:49:53.493Z,47.00
2018-09-22T08:51:57.072Z,46.70
2018-09-22T08:54:00.925Z,46.30
2018-09-22T08:56:03.851Z,46.30
2018-09-22T08:58:06.916Z,46.10
2018-09-22T09:00:09.816Z,46.10
2018-09-22T09:02:13.469Z,45.60
2018-09-22T09:04:16.366Z,45.90
2018-09-22T09:06:19.281Z,45.80
2018-09-22T09:08:22.287Z,45.70
2018-09-22T09:10:25.941Z,45.60
2018-09-22T09:12:28.830Z,45.60
2018-09-22T09:14:31.761Z,45.50
2018-09-22T09:16:34.796Z,45.50
2018-09-22T09:18:37.663Z,45.40
2018-09-22T09:20:40.527Z,45.40
2018-09-22T09:22:43.416Z,45.40
2018-09-22T09:24:46.324Z,45.30
2018-09-22T09:26:49.274Z,45.20
2018-09-22T09:28:52.889Z,45.10
2018-09-22T09:30:55.812Z,45.10
2018-09-22T09:32:59.581Z,45.10
2018-09-22T09:35:02.465Z,45.00
2018-09-22T09:37:05.327Z,45.00
2018-09-22T09:39:08.216Z,44.90
2018-09-22T09:41:11.098Z,45.00
2018-09-22T09:43:14.057Z,45.00
2018-09-22T09:45:17.676Z,45.00
2018-09-22T09:47:20.621Z,44.90
2018-09-22T09:49:23.519Z,45.00
2018-09-22T09:51:26.673Z,45.00
2018-09-22T09:53:30.354Z,44.40
2018-09-22T09:58:17.222Z,45.40
2018-09-22T10:00:20.883Z,45.40
2018-09-22T10:02:23.851Z,44.60
2018-09-22T10:04:27.532Z,44.80
2018-09-22T10:06:31.168Z,45.10
2018-09-22T10:08:34.110Z,44.90
2018-09-22T10:10:37.031Z,45.00
2018-09-22T10:12:39.936Z,45.00
2018-09-22T10:14:43.643Z,44.90
2018-09-22T10:16:47.315Z,44.80
2018-09-22T10:18:51.754Z,44.70
2018-09-22T10:20:54.922Z,44.70
2018-09-22T10:22:57.872Z,44.60
2018-09-22T10:25:00.916Z,44.70
2018-09-22T10:27:04.719Z,44.70
2018-09-22T10:29:08.399Z,44.60
2018-09-22T10:31:12.117Z,45.10
2018-09-22T10:33:16.235Z,44.40
2018-09-22T10:35:19.152Z,44.30
2018-09-22T10:37:22.063Z,44.20
2018-09-22T10:39:25.004Z,44.20
2018-09-22T10:41:27.955Z,44.00
2018-09-22T10:43:32.357Z,43.80
2018-09-22T10:45:36.175Z,43.80
2018-09-22T10:47:39.844Z,43.80
2018-09-22T10:49:43.556Z,43.70
2018-09-22T10:51:47.255Z,43.60
2018-09-22T10:53:50.931Z,42.90
2018-09-22T10:55:55.372Z,43.00
2018-09-22T10:57:58.304Z,42.90
2018-09-22T11:00:01.256Z,42.80
2018-09-22T11:02:04.225Z,43.00
2018-09-22T11:04:07.924Z,43.00
2018-09-22T11:06:11.618Z,42.90
2018-09-22T11:08:15.304Z,43.10
2018-09-22T11:10:18.448Z,42.50
2018-09-22T11:12:21.347Z,42.30
2018-09-22T11:14:24.271Z,42.30
2018-09-22T11:16:27.972Z,42.30
2018-09-22T11:18:31.787Z,42.90
2018-09-22T11:20:35.488Z,42.20
2018-09-22T11:22:39.204Z,42.00
2018-09-22T11:24:42.112Z,41.90
2018-09-22T11:26:45.042Z,41.70
2018-09-22T11:28:48.955Z,41.70
2018-09-22T11:30:52.637Z,41.60
2018-09-22T11:32:56.319Z,41.60
2018-09-22T11:34:59.288Z,41.40
2018-09-22T11:37:02.212Z,41.30
2018-09-22T11:39:05.891Z,40.90
2018-09-22T11:41:08.932Z,40.80
2018-09-22T11:43:12.659Z,41.10
2018-09-22T11:45:15.568Z,40.60
2018-09-22T11:47:19.387Z,40.30
2018-09-22T11:49:23.060Z,40.10
2018-09-22T11:51:25.996Z,40.10
2018-09-22T11:53:28.913Z,40.10
2018-09-22T11:55:31.933Z,40.10
2018-09-22T11:57:35.633Z,40.00
2018-09-22T11:59:39.391Z,39.90
2018-09-22T12:01:43.918Z,39.60
2018-09-22T12:03:46.955Z,39.50
2018-09-22T12:05:49.885Z,39.50
2018-09-22T12:07:54.308Z,39.30
2018-09-22T12:09:57.236Z,39.30
2018-09-22T12:12:00.167Z,39.10
2018-09-22T12:14:03.089Z,39.10
2018-09-22T12:16:06.884Z,38.80
2018-09-22T12:18:10.550Z,38.60
2018-09-22T12:20:13.524Z,38.40
2018-09-22T12:22:16.465Z,38.20
2018-09-22T12:24:19.536Z,37.90
2018-09-22T12:26:22.619Z,37.50
2018-09-22T12:28:26.319Z,37.20
2018-09-22T12:30:29.987Z,36.60
2018-09-22T12:32:32.916Z,36.50
2018-09-22T12:34:35.936Z,36.10
2018-09-22T12:36:38.838Z,35.80
2018-09-22T12:38:42.535Z,35.90
2018-09-22T12:40:47.084Z,35.20
2018-09-22T12:42:50.744Z,34.80
2018-09-22T12:44:53.664Z,34.70
2018-09-22T12:46:57.472Z,34.40
2018-09-22T12:49:01.168Z,34.10
2018-09-22T12:51:04.847Z,33.90
2018-09-22T12:53:08.569Z,33.90
2018-09-22T12:55:12.244Z,33.70
2018-09-22T12:57:15.353Z,33.70
2018-09-22T12:59:19.154Z,33.70
2018-09-22T13:01:22.824Z,34.30
2018-09-22T13:03:25.836Z,33.50
2018-09-22T13:05:30.339Z,33.00
2018-09-22T13:07:33.355Z,32.90
2018-09-22T13:09:36.352Z,32.60
2018-09-22T13:11:39.767Z,32.30
2018-09-22T13:13:42.787Z,32.30
2018-09-22T13:15:45.698Z,32.30
2018-09-22T13:17:48.869Z,32.20
2018-09-22T13:19:52.552Z,32.20
2018-09-22T13:21:56.168Z,32.00
2018-09-22T13:24:00.180Z,32.10
2018-09-22T13:26:03.857Z,31.70
2018-09-22T13:28:06.863Z,31.60
2018-09-22T13:30:10.688Z,31.80
2018-09-22T13:32:13.608Z,31.80
2018-09-22T13:34:16.516Z,31.80
2018-09-22T13:36:19.532Z,31.70
2018-09-22T13:38:22.459Z,31.60
2018-09-22T13:40:25.367Z,31.50
2018-09-22T13:42:29.271Z,31.50
2018-09-22T13:44:32.166Z,31.50
2018-09-22T13:46:35.828Z,31.60
2018-09-22T13:48:38.766Z,31.50
2018-09-22T13:50:41.669Z,31.50
2018-09-22T13:52:44.577Z,31.50
2018-09-22T13:54:49.012Z,31.40
2018-09-22T13:56:52.680Z,31.50
2018-09-22T13:58:55.624Z,31.30
2018-09-22T14:00:58.532Z,31.40
2018-09-22T14:03:01.460Z,31.40
2018-09-22T14:05:05.146Z,31.60
2018-09-22T14:07:08.815Z,31.40
2018-09-22T14:09:11.718Z,31.30
2018-09-22T14:11:16.159Z,31.10
2018-09-22T14:13:19.820Z,31.30
2018-09-22T14:15:22.839Z,31.10
2018-09-22T14:17:26.639Z,31.60
2018-09-22T14:19:30.307Z,31.00
2018-09-22T14:21:33.324Z,30.90
2018-09-22T14:23:37.025Z,31.10
2018-09-22T14:25:40.683Z,31.00
2018-09-22T14:27:43.708Z,30.90
2018-09-22T14:29:47.572Z,31.10
2018-09-22T14:31:50.448Z,31.10
2018-09-22T14:33:53.383Z,31.10
2018-09-22T14:35:56.328Z,31.10
2018-09-22T14:38:00.743Z,30.80
2018-09-22T14:40:03.667Z,30.80
2018-09-22T14:42:06.599Z,30.80
2018-09-22T14:44:09.513Z,30.80
2018-09-22T14:46:13.211Z,30.60
2018-09-22T14:48:16.881Z,30.70
2018-09-22T14:50:19.901Z,30.60
2018-09-22T14:52:23.597Z,30.80
2018-09-22T14:54:27.272Z,30.70
2018-09-22T14:56:31.687Z,30.70
2018-09-22T14:58:34.620Z,30.60
2018-09-22T15:00:37.527Z,30.70
2018-09-22T15:02:40.458Z,30.70
2018-09-22T15:04:43.661Z,30.70
2018-09-22T15:06:46.592Z,30.80
2018-09-22T15:08:49.501Z,30.80
2018-09-22T15:10:53.216Z,30.90
2018-09-22T15:12:56.140Z,30.90
2018-09-22T15:14:59.055Z,30.90
2018-09-22T15:17:01.991Z,31.00
2018-09-22T15:19:04.893Z,31.00
2018-09-22T15:21:07.926Z,31.10
2018-09-22T15:23:11.600Z,31.20
2018-09-22T15:25:14.607Z,31.10
2018-09-22T15:27:18.409Z,31.50
2018-09-22T15:29:22.087Z,31.60
2018-09-22T15:31:25.783Z,32.20
2018-09-22T15:33:28.715Z,31.50
2018-09-22T15:35:31.619Z,31.60
2018-09-22T15:37:34.528Z,31.60
2018-09-22T15:39:37.662Z,31.70
2018-09-22T15:41:40.584Z,31.90
2018-09-22T15:43:43.862Z,32.00
2018-09-22T15:45:46.902Z,32.30
2018-09-22T15:47:50.878Z,32.60
2018-09-22T15:49:55.503Z,32.70
2018-09-22T15:51:59.943Z,32.80
2018-09-22T15:54:02.852Z,32.70
2018-09-22T15:56:05.906Z,32.90
2018-09-22T15:58:10.237Z,33.30
2018-09-22T16:00:13.157Z,33.30
2018-09-22T16:02:16.309Z,33.60
2018-09-22T16:04:19.216Z,34.10
2018-09-22T16:06:22.127Z,34.50
2018-09-22T16:08:25.060Z,35.00
2018-09-22T16:10:27.963Z,35.20
2018-09-22T16:12:30.872Z,35.40
2018-09-22T16:14:33.984Z,35.60
2018-09-22T16:16:36.895Z,35.80
2018-09-22T16:18:40.438Z,35.90
2018-09-22T16:20:43.388Z,36.00
2018-09-22T16:22:46.291Z,36.10
2018-09-22T16:24:49.307Z,36.30
2018-09-22T16:26:52.268Z,36.50
2018-09-22T16:28:56.685Z,36.70
2018-09-22T16:30:59.898Z,36.70
2018-09-22T16:33:02.889Z,36.80
2018-09-22T16:35:05.867Z,36.90
2018-09-22T16:37:09.544Z,36.70
2018-09-22T16:39:13.211Z,37.40
2018-09-22T16:41:16.170Z,37.40
2018-09-22T16:43:19.089Z,37.50
2018-09-22T16:45:22.004Z,37.90
2018-09-22T16:47:26.421Z,38.20
2018-09-22T16:49:30.163Z,39.00
2018-09-22T16:51:33.807Z,38.40
2018-09-22T16:53:37.499Z,38.60
2018-09-22T16:55:41.952Z,38.70
2018-09-22T16:57:44.920Z,38.60
2018-09-22T16:59:48.587Z,38.90
2018-09-22T17:01:51.534Z,38.80
2018-09-22T17:03:54.839Z,39.00
2018-09-22T17:05:58.181Z,39.10
2018-09-22T17:08:01.473Z,39.20
2018-09-22T17:10:05.557Z,39.60
2018-09-22T17:12:10.211Z,39.70
2018-09-22T17:14:13.911Z,39.80
2018-09-22T17:16:16.889Z,39.80
2018-09-22T17:18:20.592Z,40.20
2018-09-22T17:20:24.262Z,40.30
2018-09-22T17:22:27.184Z,40.30
2018-09-22T17:24:30.255Z,40.50
2018-09-22T17:26:33.237Z,40.80
2018-09-22T17:28:37.400Z,41.40
2018-09-22T17:30:40.346Z,41.40
2018-09-22T17:32:43.242Z,41.50
2018-09-22T17:34:47.012Z,42.00
2018-09-22T17:36:50.760Z,42.40
2018-09-22T17:38:53.715Z,42.30
2018-09-22T17:40:56.641Z,42.60
2018-09-22T17:42:59.577Z,43.20
2018-09-22T17:45:02.510Z,43.50
2018-09-22T17:47:05.528Z,43.50
2018-09-22T17:49:09.327Z,44.60
2018-09-22T17:51:12.992Z,45.10
2018-09-22T17:53:15.979Z,45.10
2018-09-22T17:55:18.875Z,45.60
2018-09-22T17:57:22.659Z,47.00
2018-09-22T17:59:25.606Z,47.00
2018-09-22T18:01:28.522Z,47.30
2018-09-22T18:03:31.432Z,48.00
2018-09-22T18:05:35.124Z,47.70
2018-09-22T18:07:38.849Z,49.10
2018-09-22T18:09:41.769Z,49.10
2018-09-22T18:11:44.723Z,49.50
2018-09-22T18:13:47.650Z,49.80
2018-09-22T18:15:50.668Z,50.10
2018-09-22T18:17:53.715Z,50.20
2018-09-22T18:19:56.641Z,50.70
2018-09-22T18:22:00.312Z,51.90
2018-09-22T18:24:03.245Z,51.90
2018-09-22T18:26:06.148Z,52.20
2018-09-22T18:28:09.180Z,52.60
2018-09-22T18:30:12.844Z,52.90
2018-09-22T18:32:15.863Z,52.80
2018-09-22T18:34:19.575Z,52.30
2018-09-22T18:36:22.497Z,52.20
2018-09-22T18:38:25.723Z,52.90
2018-09-22T18:40:29.429Z,53.10
2018-09-22T18:42:32.409Z,53.00
2018-09-22T18:44:36.078Z,53.80
2018-09-22T18:46:39.016Z,53.80
2018-09-22T18:48:41.961Z,53.90
2018-09-22T18:50:45.861Z,54.00
2018-09-22T18:58:14.502Z,54.80
2018-09-22T19:27:28.512Z,55.90
2018-09-22T19:47:11.401Z,56.00
2018-09-22T20:07:16.976Z,56.80
2018-09-22T20:27:14.996Z,58.10
2018-09-22T20:47:11.297Z,58.10
2018-09-22T20:59:31.468Z,58.50
2018-09-22T21:01:34.388Z,61.50
2018-09-22T21:03:38.056Z,60.80
2018-09-22T21:05:42.076Z,61.30
2018-09-22T21:07:45.735Z,61.30
2018-09-22T21:09:48.660Z,60.80
2018-09-22T21:11:52.566Z,60.60
2018-09-22T21:13:56.246Z,60.60
2018-09-22T21:15:59.172Z,60.60
2018-09-22T21:18:02.112Z,60.40
2018-09-22T21:20:05.833Z,60.20
2018-09-22T21:22:09.508Z,59.90
2018-09-22T21:24:13.361Z,60.50
2018-09-22T21:26:16.258Z,59.80
2018-09-22T21:28:19.184Z,59.70
2018-09-22T21:30:22.912Z,59.70
2018-09-22T21:32:25.827Z,59.70
2018-09-22T21:34:28.740Z,59.60
2018-09-22T21:36:31.845Z,59.60
2018-09-22T21:38:35.668Z,59.50
2018-09-22T21:40:39.450Z,59.50
2018-09-22T21:42:43.170Z,59.60
2018-09-22T21:44:46.084Z,59.60
2018-09-22T21:46:49.115Z,59.60
2018-09-22T21:48:52.836Z,59.70
2018-09-22T21:50:55.728Z,59.50
2018-09-22T21:52:58.640Z,59.70
2018-09-22T21:55:01.576Z,59.70
2018-09-22T21:57:04.494Z,59.70
2018-09-22T21:59:07.439Z,59.70
2018-09-22T22:01:10.387Z,59.80
2018-09-22T22:03:14.067Z,59.80
2018-09-22T22:05:17.089Z,59.80
2018-09-22T22:07:20.921Z,59.80
2018-09-22T22:09:24.512Z,59.60
2018-09-22T22:11:27.454Z,59.60
2018-09-22T22:13:30.383Z,59.60
2018-09-22T22:15:33.293Z,59.50
2018-09-22T22:17:37.021Z,59.40
2018-09-22T22:19:40.736Z,59.50
2018-09-22T22:21:44.416Z,59.50
2018-09-22T22:23:47.419Z,59.40
2018-09-22T22:25:51.223Z,59.50
2018-09-22T22:27:54.889Z,59.50
2018-09-22T22:29:57.796Z,59.50
2018-09-22T22:32:01.541Z,59.40
2018-09-22T22:34:04.447Z,59.30
2018-09-22T22:36:07.368Z,59.30
2018-09-22T22:38:11.171Z,59.10
2018-09-22T22:40:14.084Z,59.00
2018-09-22T22:42:16.988Z,59.00
2018-09-22T22:44:19.991Z,58.90
2018-09-22T22:46:22.848Z,58.80
2018-09-22T22:48:25.816Z,58.80
2018-09-22T22:50:28.728Z,58.70
2018-09-22T22:52:31.640Z,58.50
2018-09-22T22:54:35.378Z,58.40
2018-09-22T22:56:38.275Z,58.40
2018-09-22T22:58:41.280Z,58.40
2018-09-22T23:00:44.313Z,58.40
2018-09-22T23:02:47.228Z,58.40
2018-09-22T23:04:50.135Z,58.20
2018-09-22T23:06:53.871Z,58.60
2018-09-22T23:08:56.807Z,58.00
2018-09-22T23:10:59.715Z,58.00
2018-09-22T23:13:03.422Z,58.00
2018-09-22T23:15:07.084Z,58.00
2018-09-22T23:17:09.996Z,57.90
2018-09-22T23:19:12.937Z,57.90
2018-09-22T23:21:15.966Z,58.00
2018-09-22T23:23:19.663Z,58.00
2018-09-22T23:25:23.352Z,58.00
2018-09-22T23:27:27.716Z,57.90
2018-09-22T23:29:30.653Z,57.80
2018-09-22T23:31:34.332Z,57.90
2018-09-22T23:33:38.759Z,57.90
2018-09-22T23:35:42.468Z,58.00
2018-09-22T23:37:46.148Z,57.90
2018-09-22T23:39:49.136Z,57.80
2018-09-22T23:41:52.964Z,58.40
2018-09-22T23:43:55.874Z,57.90
2018-09-22T23:45:58.784Z,58.00
2018-09-22T23:48:01.732Z,58.30
2018-09-22T23:50:04.640Z,58.30
2018-09-22T23:52:07.673Z,58.40
2018-09-22T23:54:11.475Z,58.30
2018-09-22T23:56:15.144Z,58.20
2018-09-22T23:58:18.200Z,58.10
